<?xml version="1.0" encoding="UTF-8" standalone="no" ?>
<gpx xmlns="http://www.topografix.com/GPX/1/1" xmlns:xsi="http://www.w3.org/2001/XMLSchema-instance" xsi:schemaLocation="http://www.topografix.com/GPX/1/1 http://www.topografix.com/GPX/1/1/gpx.xsd" version="1.1" creator="VisuGPX - https://www.visugpx.com">
  <metadata>
    <name>10996549-Château de Montlaur</name>
  </metadata>
  <trk>
    <name><![CDATA[10996549-Château de Montlaur]]></name>
    <trkseg>
      <trkpt lat="43.75179" lon="3.95738">
        <ele>100</ele>
        <time>2020-05-21T14:20:31Z</time>
      </trkpt>
      <trkpt lat="43.7517" lon="3.95718">
        <ele>99</ele>
        <time>2020-05-21T14:20:54Z</time>
      </trkpt>
      <trkpt lat="43.75159" lon="3.95686">
        <ele>99</ele>
        <time>2020-05-21T14:21:28Z</time>
      </trkpt>
      <trkpt lat="43.75148" lon="3.95662">
        <ele>99</ele>
        <time>2020-05-21T14:21:55Z</time>
      </trkpt>
      <trkpt lat="43.75136" lon="3.95645">
        <ele>99</ele>
        <time>2020-05-21T14:22:18Z</time>
      </trkpt>
      <trkpt lat="43.75123" lon="3.95615">
        <ele>100</ele>
        <time>2020-05-21T14:22:52Z</time>
      </trkpt>
      <trkpt lat="43.75096" lon="3.95588">
        <ele>101</ele>
        <time>2020-05-21T14:23:36Z</time>
      </trkpt>
      <trkpt lat="43.75071" lon="3.95574">
        <ele>101</ele>
        <time>2020-05-21T14:24:12Z</time>
      </trkpt>
      <trkpt lat="43.75037" lon="3.95592">
        <ele>102</ele>
        <time>2020-05-21T14:25:01Z</time>
      </trkpt>
      <trkpt lat="43.75017" lon="3.956">
        <ele>103</ele>
        <time>2020-05-21T14:25:29Z</time>
      </trkpt>
      <trkpt lat="43.74999" lon="3.95613">
        <ele>103</ele>
        <time>2020-05-21T14:25:56Z</time>
      </trkpt>
      <trkpt lat="43.74969" lon="3.95677">
        <ele>103</ele>
        <time>2020-05-21T14:27:09Z</time>
      </trkpt>
      <trkpt lat="43.74941" lon="3.95733">
        <ele>103</ele>
        <time>2020-05-21T14:28:15Z</time>
      </trkpt>
      <trkpt lat="43.74863" lon="3.95803">
        <ele>104</ele>
        <time>2020-05-21T14:30:19Z</time>
      </trkpt>
      <trkpt lat="43.74834" lon="3.95845">
        <ele>105</ele>
        <time>2020-05-21T14:31:15Z</time>
      </trkpt>
      <trkpt lat="43.74804" lon="3.95894">
        <ele>104</ele>
        <time>2020-05-21T14:32:17Z</time>
      </trkpt>
      <trkpt lat="43.74785" lon="3.95898">
        <ele>104</ele>
        <time>2020-05-21T14:32:43Z</time>
      </trkpt>
      <trkpt lat="43.74768" lon="3.95888">
        <ele>104</ele>
        <time>2020-05-21T14:33:07Z</time>
      </trkpt>
      <trkpt lat="43.74776" lon="3.95876">
        <ele>104</ele>
        <time>2020-05-21T14:33:23Z</time>
      </trkpt>
      <trkpt lat="43.74695" lon="3.95675">
        <ele>101</ele>
        <time>2020-05-21T14:37:05Z</time>
      </trkpt>
      <trkpt lat="43.74669" lon="3.95597">
        <ele>102</ele>
        <time>2020-05-21T14:38:28Z</time>
      </trkpt>
      <trkpt lat="43.74644" lon="3.95554">
        <ele>104</ele>
        <time>2020-05-21T14:39:21Z</time>
      </trkpt>
      <trkpt lat="43.74605" lon="3.95435">
        <ele>110</ele>
        <time>2020-05-21T14:41:27Z</time>
      </trkpt>
      <trkpt lat="43.74531" lon="3.95486">
        <ele>111</ele>
        <time>2020-05-21T14:43:17Z</time>
      </trkpt>
      <trkpt lat="43.74496" lon="3.95484">
        <ele>112</ele>
        <time>2020-05-21T14:44:04Z</time>
      </trkpt>
      <trkpt lat="43.74453" lon="3.9551">
        <ele>112</ele>
        <time>2020-05-21T14:45:07Z</time>
      </trkpt>
      <trkpt lat="43.74417" lon="3.95448">
        <ele>116</ele>
        <time>2020-05-21T14:46:23Z</time>
      </trkpt>
      <trkpt lat="43.74503" lon="3.9533">
        <ele>119</ele>
        <time>2020-05-21T14:49:05Z</time>
      </trkpt>
      <trkpt lat="43.74545" lon="3.95317">
        <ele>118</ele>
        <time>2020-05-21T14:50:02Z</time>
      </trkpt>
      <trkpt lat="43.7462" lon="3.95227">
        <ele>119</ele>
        <time>2020-05-21T14:52:15Z</time>
      </trkpt>
      <trkpt lat="43.74648" lon="3.95263">
        <ele>116</ele>
        <time>2020-05-21T14:53:06Z</time>
      </trkpt>
      <trkpt lat="43.7473" lon="3.95188">
        <ele>119</ele>
        <time>2020-05-21T14:55:17Z</time>
      </trkpt>
      <trkpt lat="43.74684" lon="3.95117">
        <ele>124</ele>
        <time>2020-05-21T14:56:49Z</time>
      </trkpt>
      <trkpt lat="43.74686" lon="3.95068">
        <ele>125</ele>
        <time>2020-05-21T14:57:36Z</time>
      </trkpt>
      <trkpt lat="43.74673" lon="3.95001">
        <ele>127</ele>
        <time>2020-05-21T14:58:43Z</time>
      </trkpt>
      <trkpt lat="43.74749" lon="3.9486">
        <ele>129</ele>
        <time>2020-05-21T15:01:33Z</time>
      </trkpt>
      <trkpt lat="43.74703" lon="3.94798">
        <ele>137</ele>
        <time>2020-05-21T15:02:58Z</time>
      </trkpt>
      <trkpt lat="43.74707" lon="3.94645">
        <ele>144</ele>
        <time>2020-05-21T15:05:26Z</time>
      </trkpt>
      <trkpt lat="43.74644" lon="3.94542">
        <ele>152</ele>
        <time>2020-05-21T15:07:36Z</time>
      </trkpt>
      <trkpt lat="43.74549" lon="3.94431">
        <ele>158</ele>
        <time>2020-05-21T15:10:22Z</time>
      </trkpt>
      <trkpt lat="43.74484" lon="3.94362">
        <ele>162</ele>
        <time>2020-05-21T15:12:11Z</time>
      </trkpt>
      <trkpt lat="43.74455" lon="3.94317">
        <ele>162</ele>
        <time>2020-05-21T15:13:09Z</time>
      </trkpt>
      <trkpt lat="43.74483" lon="3.94296">
        <ele>166</ele>
        <time>2020-05-21T15:13:52Z</time>
      </trkpt>
      <trkpt lat="43.74513" lon="3.94282">
        <ele>171</ele>
        <time>2020-05-21T15:14:34Z</time>
      </trkpt>
      <trkpt lat="43.74549" lon="3.94274">
        <ele>175</ele>
        <time>2020-05-21T15:15:23Z</time>
      </trkpt>
      <trkpt lat="43.74575" lon="3.9429">
        <ele>173</ele>
        <time>2020-05-21T15:16:01Z</time>
      </trkpt>
      <trkpt lat="43.74682" lon="3.94252">
        <ele>180</ele>
        <time>2020-05-21T15:18:28Z</time>
      </trkpt>
      <trkpt lat="43.7474" lon="3.94212">
        <ele>181</ele>
        <time>2020-05-21T15:19:55Z</time>
      </trkpt>
      <trkpt lat="43.74808" lon="3.94169">
        <ele>183</ele>
        <time>2020-05-21T15:21:34Z</time>
      </trkpt>
      <trkpt lat="43.7489" lon="3.94141">
        <ele>184</ele>
        <time>2020-05-21T15:23:27Z</time>
      </trkpt>
      <trkpt lat="43.74996" lon="3.94119">
        <ele>192</ele>
        <time>2020-05-21T15:25:50Z</time>
      </trkpt>
      <trkpt lat="43.75044" lon="3.94139">
        <ele>189</ele>
        <time>2020-05-21T15:26:57Z</time>
      </trkpt>
      <trkpt lat="43.75141" lon="3.94096">
        <ele>191</ele>
        <time>2020-05-21T15:29:13Z</time>
      </trkpt>
      <trkpt lat="43.75213" lon="3.94044">
        <ele>188</ele>
        <time>2020-05-21T15:31:01Z</time>
      </trkpt>
      <trkpt lat="43.75255" lon="3.94014">
        <ele>188</ele>
        <time>2020-05-21T15:32:04Z</time>
      </trkpt>
      <trkpt lat="43.75319" lon="3.93995">
        <ele>188</ele>
        <time>2020-05-21T15:33:32Z</time>
      </trkpt>
      <trkpt lat="43.75361" lon="3.94008">
        <ele>185</ele>
        <time>2020-05-21T15:34:29Z</time>
      </trkpt>
      <trkpt lat="43.75392" lon="3.94012">
        <ele>185</ele>
        <time>2020-05-21T15:35:11Z</time>
      </trkpt>
      <trkpt lat="43.75434" lon="3.93995">
        <ele>190</ele>
        <time>2020-05-21T15:36:09Z</time>
      </trkpt>
      <trkpt lat="43.75447" lon="3.93881">
        <ele>206</ele>
        <time>2020-05-21T15:38:00Z</time>
      </trkpt>
      <trkpt lat="43.75541" lon="3.93894">
        <ele>208</ele>
        <time>2020-05-21T15:40:06Z</time>
      </trkpt>
      <trkpt lat="43.75616" lon="3.93871">
        <ele>206</ele>
        <time>2020-05-21T15:41:49Z</time>
      </trkpt>
      <trkpt lat="43.75757" lon="3.93787">
        <ele>209</ele>
        <time>2020-05-21T15:45:14Z</time>
      </trkpt>
      <trkpt lat="43.75847" lon="3.9371">
        <ele>213</ele>
        <time>2020-05-21T15:47:35Z</time>
      </trkpt>
      <trkpt lat="43.76022" lon="3.93596">
        <ele>219</ele>
        <time>2020-05-21T15:51:53Z</time>
      </trkpt>
      <trkpt lat="43.76105" lon="3.93551">
        <ele>216</ele>
        <time>2020-05-21T15:53:52Z</time>
      </trkpt>
      <trkpt lat="43.76198" lon="3.93521">
        <ele>211</ele>
        <time>2020-05-21T15:55:59Z</time>
      </trkpt>
      <trkpt lat="43.76274" lon="3.93463">
        <ele>203</ele>
        <time>2020-05-21T15:57:55Z</time>
      </trkpt>
      <trkpt lat="43.76325" lon="3.93401">
        <ele>201</ele>
        <time>2020-05-21T15:59:26Z</time>
      </trkpt>
      <trkpt lat="43.76369" lon="3.93338">
        <ele>201</ele>
        <time>2020-05-21T16:00:50Z</time>
      </trkpt>
      <trkpt lat="43.76423" lon="3.93328">
        <ele>192</ele>
        <time>2020-05-21T16:02:03Z</time>
      </trkpt>
      <trkpt lat="43.76445" lon="3.93375">
        <ele>187</ele>
        <time>2020-05-21T16:02:57Z</time>
      </trkpt>
      <trkpt lat="43.76435" lon="3.93433">
        <ele>186</ele>
        <time>2020-05-21T16:03:54Z</time>
      </trkpt>
      <trkpt lat="43.76443" lon="3.93531">
        <ele>177</ele>
        <time>2020-05-21T16:05:29Z</time>
      </trkpt>
      <trkpt lat="43.76445" lon="3.93626">
        <ele>169</ele>
        <time>2020-05-21T16:07:01Z</time>
      </trkpt>
      <trkpt lat="43.76497" lon="3.93658">
        <ele>170</ele>
        <time>2020-05-21T16:08:17Z</time>
      </trkpt>
      <trkpt lat="43.76533" lon="3.93742">
        <ele>165</ele>
        <time>2020-05-21T16:09:51Z</time>
      </trkpt>
      <trkpt lat="43.76534" lon="3.93801">
        <ele>160</ele>
        <time>2020-05-21T16:10:48Z</time>
      </trkpt>
      <trkpt lat="43.76561" lon="3.93875">
        <ele>156</ele>
        <time>2020-05-21T16:12:08Z</time>
      </trkpt>
      <trkpt lat="43.76606" lon="3.93937">
        <ele>151</ele>
        <time>2020-05-21T16:13:33Z</time>
      </trkpt>
      <trkpt lat="43.76623" lon="3.9396">
        <ele>148</ele>
        <time>2020-05-21T16:14:04Z</time>
      </trkpt>
      <trkpt lat="43.76647" lon="3.93975">
        <ele>147</ele>
        <time>2020-05-21T16:14:39Z</time>
      </trkpt>
      <trkpt lat="43.76664" lon="3.93994">
        <ele>146</ele>
        <time>2020-05-21T16:15:09Z</time>
      </trkpt>
      <trkpt lat="43.76648" lon="3.94005">
        <ele>145</ele>
        <time>2020-05-21T16:15:32Z</time>
      </trkpt>
      <trkpt lat="43.76639" lon="3.94022">
        <ele>145</ele>
        <time>2020-05-21T16:15:53Z</time>
      </trkpt>
      <trkpt lat="43.76624" lon="3.94055">
        <ele>143</ele>
        <time>2020-05-21T16:16:30Z</time>
      </trkpt>
      <trkpt lat="43.76603" lon="3.94102">
        <ele>139</ele>
        <time>2020-05-21T16:17:24Z</time>
      </trkpt>
      <trkpt lat="43.76563" lon="3.94183">
        <ele>134</ele>
        <time>2020-05-21T16:18:58Z</time>
      </trkpt>
      <trkpt lat="43.76536" lon="3.9424">
        <ele>133</ele>
        <time>2020-05-21T16:20:04Z</time>
      </trkpt>
      <trkpt lat="43.76525" lon="3.94278">
        <ele>132</ele>
        <time>2020-05-21T16:20:43Z</time>
      </trkpt>
      <trkpt lat="43.76516" lon="3.94324">
        <ele>131</ele>
        <time>2020-05-21T16:21:29Z</time>
      </trkpt>
      <trkpt lat="43.76483" lon="3.94368">
        <ele>130</ele>
        <time>2020-05-21T16:22:30Z</time>
      </trkpt>
      <trkpt lat="43.76455" lon="3.94411">
        <ele>130</ele>
        <time>2020-05-21T16:23:26Z</time>
      </trkpt>
      <trkpt lat="43.76427" lon="3.9448">
        <ele>127</ele>
        <time>2020-05-21T16:24:42Z</time>
      </trkpt>
      <trkpt lat="43.76409" lon="3.94511">
        <ele>125</ele>
        <time>2020-05-21T16:25:21Z</time>
      </trkpt>
      <trkpt lat="43.76395" lon="3.94541">
        <ele>123</ele>
        <time>2020-05-21T16:25:55Z</time>
      </trkpt>
      <trkpt lat="43.764" lon="3.94575">
        <ele>120</ele>
        <time>2020-05-21T16:26:29Z</time>
      </trkpt>
      <trkpt lat="43.76391" lon="3.94606">
        <ele>119</ele>
        <time>2020-05-21T16:27:01Z</time>
      </trkpt>
      <trkpt lat="43.76381" lon="3.94621">
        <ele>119</ele>
        <time>2020-05-21T16:27:20Z</time>
      </trkpt>
      <trkpt lat="43.76343" lon="3.94665">
        <ele>115</ele>
        <time>2020-05-21T16:28:27Z</time>
      </trkpt>
      <trkpt lat="43.76301" lon="3.94707">
        <ele>112</ele>
        <time>2020-05-21T16:29:36Z</time>
      </trkpt>
      <trkpt lat="43.76288" lon="3.94718">
        <ele>112</ele>
        <time>2020-05-21T16:29:56Z</time>
      </trkpt>
      <trkpt lat="43.76215" lon="3.94784">
        <ele>108</ele>
        <time>2020-05-21T16:31:52Z</time>
      </trkpt>
      <trkpt lat="43.76151" lon="3.94851">
        <ele>108</ele>
        <time>2020-05-21T16:33:39Z</time>
      </trkpt>
      <trkpt lat="43.76067" lon="3.94933">
        <ele>108</ele>
        <time>2020-05-21T16:35:57Z</time>
      </trkpt>
      <trkpt lat="43.76016" lon="3.9498">
        <ele>107</ele>
        <time>2020-05-21T16:37:18Z</time>
      </trkpt>
      <trkpt lat="43.75984" lon="3.95021">
        <ele>106</ele>
        <time>2020-05-21T16:38:17Z</time>
      </trkpt>
      <trkpt lat="43.76046" lon="3.95098">
        <ele>105</ele>
        <time>2020-05-21T16:40:08Z</time>
      </trkpt>
      <trkpt lat="43.76079" lon="3.95157">
        <ele>103</ele>
        <time>2020-05-21T16:41:20Z</time>
      </trkpt>
      <trkpt lat="43.76164" lon="3.95266">
        <ele>101</ele>
        <time>2020-05-21T16:43:54Z</time>
      </trkpt>
      <trkpt lat="43.76234" lon="3.95296">
        <ele>103</ele>
        <time>2020-05-21T16:45:32Z</time>
      </trkpt>
      <trkpt lat="43.7632" lon="3.95305">
        <ele>102</ele>
        <time>2020-05-21T16:47:27Z</time>
      </trkpt>
      <trkpt lat="43.76398" lon="3.9532">
        <ele>101</ele>
        <time>2020-05-21T16:49:12Z</time>
      </trkpt>
      <trkpt lat="43.76471" lon="3.95327">
        <ele>101</ele>
        <time>2020-05-21T16:50:50Z</time>
      </trkpt>
      <trkpt lat="43.76523" lon="3.95327">
        <ele>104</ele>
        <time>2020-05-21T16:51:59Z</time>
      </trkpt>
      <trkpt lat="43.76538" lon="3.95329">
        <ele>105</ele>
        <time>2020-05-21T16:52:19Z</time>
      </trkpt>
      <trkpt lat="43.7655" lon="3.95334">
        <ele>106</ele>
        <time>2020-05-21T16:52:36Z</time>
      </trkpt>
      <trkpt lat="43.76617" lon="3.95426">
        <ele>106</ele>
        <time>2020-05-21T16:54:42Z</time>
      </trkpt>
      <trkpt lat="43.76676" lon="3.9548">
        <ele>107</ele>
        <time>2020-05-21T16:56:16Z</time>
      </trkpt>
      <trkpt lat="43.76715" lon="3.95507">
        <ele>106</ele>
        <time>2020-05-21T16:57:15Z</time>
      </trkpt>
      <trkpt lat="43.76755" lon="3.95548">
        <ele>106</ele>
        <time>2020-05-21T16:58:21Z</time>
      </trkpt>
      <trkpt lat="43.76781" lon="3.95596">
        <ele>106</ele>
        <time>2020-05-21T16:59:19Z</time>
      </trkpt>
      <trkpt lat="43.76783" lon="3.95623">
        <ele>105</ele>
        <time>2020-05-21T16:59:45Z</time>
      </trkpt>
      <trkpt lat="43.76781" lon="3.95645">
        <ele>105</ele>
        <time>2020-05-21T17:00:06Z</time>
      </trkpt>
      <trkpt lat="43.76766" lon="3.95647">
        <ele>104</ele>
        <time>2020-05-21T17:00:26Z</time>
      </trkpt>
      <trkpt lat="43.76754" lon="3.95759">
        <ele>101</ele>
        <time>2020-05-21T17:02:15Z</time>
      </trkpt>
      <trkpt lat="43.76731" lon="3.95816">
        <ele>101</ele>
        <time>2020-05-21T17:03:18Z</time>
      </trkpt>
      <trkpt lat="43.76708" lon="3.95851">
        <ele>100</ele>
        <time>2020-05-21T17:04:04Z</time>
      </trkpt>
      <trkpt lat="43.76673" lon="3.9595">
        <ele>98</ele>
        <time>2020-05-21T17:05:50Z</time>
      </trkpt>
      <trkpt lat="43.7665" lon="3.95998">
        <ele>97</ele>
        <time>2020-05-21T17:06:46Z</time>
      </trkpt>
      <trkpt lat="43.76551" lon="3.9612">
        <ele>94</ele>
        <time>2020-05-21T17:09:43Z</time>
      </trkpt>
      <trkpt lat="43.76493" lon="3.96167">
        <ele>93</ele>
        <time>2020-05-21T17:11:12Z</time>
      </trkpt>
      <trkpt lat="43.76262" lon="3.96338">
        <ele>90</ele>
        <time>2020-05-21T17:17:02Z</time>
      </trkpt>
      <trkpt lat="43.76184" lon="3.964">
        <ele>90</ele>
        <time>2020-05-21T17:19:02Z</time>
      </trkpt>
      <trkpt lat="43.76156" lon="3.96423">
        <ele>90</ele>
        <time>2020-05-21T17:19:45Z</time>
      </trkpt>
      <trkpt lat="43.76125" lon="3.96441">
        <ele>90</ele>
        <time>2020-05-21T17:20:30Z</time>
      </trkpt>
      <trkpt lat="43.76079" lon="3.96456">
        <ele>91</ele>
        <time>2020-05-21T17:21:33Z</time>
      </trkpt>
      <trkpt lat="43.76068" lon="3.96458">
        <ele>91</ele>
        <time>2020-05-21T17:21:48Z</time>
      </trkpt>
      <trkpt lat="43.75991" lon="3.96551">
        <ele>90</ele>
        <time>2020-05-21T17:24:04Z</time>
      </trkpt>
      <trkpt lat="43.7597" lon="3.96629">
        <ele>90</ele>
        <time>2020-05-21T17:25:25Z</time>
      </trkpt>
      <trkpt lat="43.75951" lon="3.96656">
        <ele>91</ele>
        <time>2020-05-21T17:26:01Z</time>
      </trkpt>
      <trkpt lat="43.75907" lon="3.96648">
        <ele>92</ele>
        <time>2020-05-21T17:27:00Z</time>
      </trkpt>
      <trkpt lat="43.75862" lon="3.96658">
        <ele>94</ele>
        <time>2020-05-21T17:28:01Z</time>
      </trkpt>
      <trkpt lat="43.75808" lon="3.96671">
        <ele>98</ele>
        <time>2020-05-21T17:29:14Z</time>
      </trkpt>
      <trkpt lat="43.75752" lon="3.96695">
        <ele>101</ele>
        <time>2020-05-21T17:30:32Z</time>
      </trkpt>
      <trkpt lat="43.75726" lon="3.96709">
        <ele>102</ele>
        <time>2020-05-21T17:31:10Z</time>
      </trkpt>
      <trkpt lat="43.75719" lon="3.9673">
        <ele>102</ele>
        <time>2020-05-21T17:31:32Z</time>
      </trkpt>
      <trkpt lat="43.75764" lon="3.96729">
        <ele>100</ele>
        <time>2020-05-21T17:32:32Z</time>
      </trkpt>
      <trkpt lat="43.75814" lon="3.96776">
        <ele>97</ele>
        <time>2020-05-21T17:33:53Z</time>
      </trkpt>
      <trkpt lat="43.7589" lon="3.96868">
        <ele>92</ele>
        <time>2020-05-21T17:36:07Z</time>
      </trkpt>
      <trkpt lat="43.75932" lon="3.96896">
        <ele>90</ele>
        <time>2020-05-21T17:37:10Z</time>
      </trkpt>
      <trkpt lat="43.75982" lon="3.96936">
        <ele>90</ele>
        <time>2020-05-21T17:38:27Z</time>
      </trkpt>
      <trkpt lat="43.76034" lon="3.9695">
        <ele>89</ele>
        <time>2020-05-21T17:39:37Z</time>
      </trkpt>
      <trkpt lat="43.76082" lon="3.96993">
        <ele>88</ele>
        <time>2020-05-21T17:40:54Z</time>
      </trkpt>
      <trkpt lat="43.76104" lon="3.9701">
        <ele>87</ele>
        <time>2020-05-21T17:41:27Z</time>
      </trkpt>
      <trkpt lat="43.76072" lon="3.97127">
        <ele>89</ele>
        <time>2020-05-21T17:43:28Z</time>
      </trkpt>
      <trkpt lat="43.7608" lon="3.97145">
        <ele>89</ele>
        <time>2020-05-21T17:43:48Z</time>
      </trkpt>
      <trkpt lat="43.76135" lon="3.97203">
        <ele>89</ele>
        <time>2020-05-21T17:45:20Z</time>
      </trkpt>
      <trkpt lat="43.7616" lon="3.9724">
        <ele>88</ele>
        <time>2020-05-21T17:46:09Z</time>
      </trkpt>
      <trkpt lat="43.76183" lon="3.97304">
        <ele>88</ele>
        <time>2020-05-21T17:47:18Z</time>
      </trkpt>
      <trkpt lat="43.76188" lon="3.97347">
        <ele>89</ele>
        <time>2020-05-21T17:48:00Z</time>
      </trkpt>
      <trkpt lat="43.76201" lon="3.9737">
        <ele>90</ele>
        <time>2020-05-21T17:48:28Z</time>
      </trkpt>
      <trkpt lat="43.76185" lon="3.97381">
        <ele>91</ele>
        <time>2020-05-21T17:48:52Z</time>
      </trkpt>
      <trkpt lat="43.76178" lon="3.97444">
        <ele>94</ele>
        <time>2020-05-21T17:49:54Z</time>
      </trkpt>
      <trkpt lat="43.76175" lon="3.97475">
        <ele>95</ele>
        <time>2020-05-21T17:50:24Z</time>
      </trkpt>
      <trkpt lat="43.76181" lon="3.97511">
        <ele>96</ele>
        <time>2020-05-21T17:50:59Z</time>
      </trkpt>
      <trkpt lat="43.76164" lon="3.97558">
        <ele>100</ele>
        <time>2020-05-21T17:51:50Z</time>
      </trkpt>
      <trkpt lat="43.76149" lon="3.97571">
        <ele>103</ele>
        <time>2020-05-21T17:52:14Z</time>
      </trkpt>
      <trkpt lat="43.76136" lon="3.97677">
        <ele>110</ele>
        <time>2020-05-21T17:53:57Z</time>
      </trkpt>
      <trkpt lat="43.76124" lon="3.97716">
        <ele>112</ele>
        <time>2020-05-21T17:54:38Z</time>
      </trkpt>
      <trkpt lat="43.76097" lon="3.97735">
        <ele>112</ele>
        <time>2020-05-21T17:55:18Z</time>
      </trkpt>
      <trkpt lat="43.76089" lon="3.97756">
        <ele>111</ele>
        <time>2020-05-21T17:55:41Z</time>
      </trkpt>
      <trkpt lat="43.76059" lon="3.97732">
        <ele>111</ele>
        <time>2020-05-21T17:56:28Z</time>
      </trkpt>
      <trkpt lat="43.7597" lon="3.97679">
        <ele>114</ele>
        <time>2020-05-21T17:58:37Z</time>
      </trkpt>
      <trkpt lat="43.75934" lon="3.97642">
        <ele>118</ele>
        <time>2020-05-21T17:59:37Z</time>
      </trkpt>
      <trkpt lat="43.75839" lon="3.97504">
        <ele>124</ele>
        <time>2020-05-21T18:02:40Z</time>
      </trkpt>
      <trkpt lat="43.75747" lon="3.97354">
        <ele>128</ele>
        <time>2020-05-21T18:05:50Z</time>
      </trkpt>
      <trkpt lat="43.75633" lon="3.97165">
        <ele>137</ele>
        <time>2020-05-21T18:09:47Z</time>
      </trkpt>
      <trkpt lat="43.75586" lon="3.97131">
        <ele>137</ele>
        <time>2020-05-21T18:10:58Z</time>
      </trkpt>
      <trkpt lat="43.75575" lon="3.97133">
        <ele>138</ele>
        <time>2020-05-21T18:11:13Z</time>
      </trkpt>
      <trkpt lat="43.75561" lon="3.97126">
        <ele>138</ele>
        <time>2020-05-21T18:11:33Z</time>
      </trkpt>
      <trkpt lat="43.75504" lon="3.97089">
        <ele>142</ele>
        <time>2020-05-21T18:12:57Z</time>
      </trkpt>
      <trkpt lat="43.75498" lon="3.97057">
        <ele>140</ele>
        <time>2020-05-21T18:13:29Z</time>
      </trkpt>
      <trkpt lat="43.75476" lon="3.97012">
        <ele>137</ele>
        <time>2020-05-21T18:14:21Z</time>
      </trkpt>
      <trkpt lat="43.75453" lon="3.97003">
        <ele>138</ele>
        <time>2020-05-21T18:14:53Z</time>
      </trkpt>
      <trkpt lat="43.75425" lon="3.97001">
        <ele>139</ele>
        <time>2020-05-21T18:15:30Z</time>
      </trkpt>
      <trkpt lat="43.75385" lon="3.9701">
        <ele>137</ele>
        <time>2020-05-21T18:16:24Z</time>
      </trkpt>
      <trkpt lat="43.75342" lon="3.97053">
        <ele>135</ele>
        <time>2020-05-21T18:17:35Z</time>
      </trkpt>
      <trkpt lat="43.75298" lon="3.97066">
        <ele>133</ele>
        <time>2020-05-21T18:18:35Z</time>
      </trkpt>
      <trkpt lat="43.75286" lon="3.97068">
        <ele>133</ele>
        <time>2020-05-21T18:18:51Z</time>
      </trkpt>
      <trkpt lat="43.75264" lon="3.97033">
        <ele>129</ele>
        <time>2020-05-21T18:19:36Z</time>
      </trkpt>
      <trkpt lat="43.75204" lon="3.97023">
        <ele>123</ele>
        <time>2020-05-21T18:20:57Z</time>
      </trkpt>
      <trkpt lat="43.75184" lon="3.97007">
        <ele>121</ele>
        <time>2020-05-21T18:21:28Z</time>
      </trkpt>
      <trkpt lat="43.75165" lon="3.97004">
        <ele>119</ele>
        <time>2020-05-21T18:21:53Z</time>
      </trkpt>
      <trkpt lat="43.75149" lon="3.9701">
        <ele>118</ele>
        <time>2020-05-21T18:22:15Z</time>
      </trkpt>
      <trkpt lat="43.75135" lon="3.97012">
        <ele>117</ele>
        <time>2020-05-21T18:22:34Z</time>
      </trkpt>
      <trkpt lat="43.75093" lon="3.9701">
        <ele>114</ele>
        <time>2020-05-21T18:23:30Z</time>
      </trkpt>
      <trkpt lat="43.75077" lon="3.9701">
        <ele>113</ele>
        <time>2020-05-21T18:23:51Z</time>
      </trkpt>
      <trkpt lat="43.75056" lon="3.96864">
        <ele>106</ele>
        <time>2020-05-21T18:26:15Z</time>
      </trkpt>
      <trkpt lat="43.75034" lon="3.96722">
        <ele>107</ele>
        <time>2020-05-21T18:28:35Z</time>
      </trkpt>
      <trkpt lat="43.7503" lon="3.96656">
        <ele>109</ele>
        <time>2020-05-21T18:29:39Z</time>
      </trkpt>
      <trkpt lat="43.75032" lon="3.96617">
        <ele>109</ele>
        <time>2020-05-21T18:30:17Z</time>
      </trkpt>
      <trkpt lat="43.75037" lon="3.96563">
        <ele>107</ele>
        <time>2020-05-21T18:31:09Z</time>
      </trkpt>
      <trkpt lat="43.75034" lon="3.96525">
        <ele>106</ele>
        <time>2020-05-21T18:31:46Z</time>
      </trkpt>
      <trkpt lat="43.75027" lon="3.96459">
        <ele>105</ele>
        <time>2020-05-21T18:32:50Z</time>
      </trkpt>
      <trkpt lat="43.75015" lon="3.96385">
        <ele>103</ele>
        <time>2020-05-21T18:34:03Z</time>
      </trkpt>
      <trkpt lat="43.74999" lon="3.96283">
        <ele>100</ele>
        <time>2020-05-21T18:35:44Z</time>
      </trkpt>
      <trkpt lat="43.74985" lon="3.96194">
        <ele>98</ele>
        <time>2020-05-21T18:37:12Z</time>
      </trkpt>
      <trkpt lat="43.7497" lon="3.96112">
        <ele>99</ele>
        <time>2020-05-21T18:38:33Z</time>
      </trkpt>
      <trkpt lat="43.75012" lon="3.96052">
        <ele>98</ele>
        <time>2020-05-21T18:39:54Z</time>
      </trkpt>
      <trkpt lat="43.75055" lon="3.95971">
        <ele>98</ele>
        <time>2020-05-21T18:41:31Z</time>
      </trkpt>
      <trkpt lat="43.75082" lon="3.95916">
        <ele>98</ele>
        <time>2020-05-21T18:42:35Z</time>
      </trkpt>
      <trkpt lat="43.75121" lon="3.95798">
        <ele>99</ele>
        <time>2020-05-21T18:44:40Z</time>
      </trkpt>
      <trkpt lat="43.75158" lon="3.95781">
        <ele>99</ele>
        <time>2020-05-21T18:45:32Z</time>
      </trkpt>
    </trkseg>
  </trk>
</gpx>